Data for 11/06/2018

Time Sea-Level Adjusted Pressure Absolute Pressure Temperature Relative Humidity Dew Point   
(mb) (inHg) (mb) (inHg) (C) (F) (%) (C) (F)
00:05 1015 29.97 845 24.95 -0.9 30.3 93 -1.9 28.6
00:10 1015 29.97 845 24.95 -1.1 30.1 93 -2 28.4
00:15 1015 29.97 845 24.95 -1.1 30 93 -2.1 28.3
00:20 1015 29.97 845 24.95 -1.2 29.9 93 -2.1 28.1
00:25 1015 29.97 845 24.95 -1.3 29.7 93 -2.2 28
00:30 1015 29.97 845 24.95 -1.4 29.6 93 -2.3 27.8
00:35 1015 29.97 845 24.95 -1.4 29.5 93 -2.4 27.7
00:40 1015 29.97 845 24.95 -1.4 29.5 93 -2.3 27.8
00:45 1015 29.97 845 24.95 -1.4 29.5 93 -2.3 27.8
00:50 1015 29.97 845 24.95 -1.4 29.5 93 -2.4 27.7
00:55 1015 29.97 845 24.95 -1.4 29.4 93 -2.4 27.7
01:00 1015 29.97 845 24.95 -1.5 29.4 93 -2.4 27.6
01:05 1016 30 845 24.95 -1.5 29.3 93 -2.4 27.6
01:10 1016 30 845 24.95 -1.5 29.3 93 -2.4 27.7
01:15 1016 30 845 24.95 -1.6 29.2 93 -2.5 27.5
01:20 1015 29.97 845 24.95 -1.8 28.8 93 -2.7 27.1
01:25 1015 29.97 845 24.95 -2.1 28.3 93 -3 26.6
01:30 1016 30 845 24.95 -2.2 28.1 94 -3.1 26.4
01:35 1015 29.97 845 24.95 -2.2 28.1 94 -3.1 26.5
01:40 1016 30 845 24.95 -2.3 27.8 94 -3.2 26.2
01:45 1016 30 845 24.95 -2.1 28.3 94 -3 26.7
01:50 1016 30 845 24.95 -2.1 28.2 94 -3 26.6
01:55 1016 30 845 24.95 -2.1 28.2 94 -3 26.6
02:00 1016 30 845 24.95 -2 28.4 94 -2.9 26.8
02:05 1016 30 845 24.95 -1.9 28.6 93 -2.8 26.9
02:10 1016 30 845 24.95 -1.8 28.7 93 -2.8 27
02:15 1016 30 845 24.95 -1.7 29 93 -2.7 27.2
02:20 1016 30 845 24.95 -1.6 29.1 93 -2.6 27.3
02:25 1016 30 845 24.95 -1.6 29 93 -2.7 27.2
02:30 1016 30 845 24.95 -1.7 29 93 -2.7 27.1
02:35 1016 30 845 24.95 -1.6 29.2 93 -2.6 27.4
02:40 1016 30 845 24.95 -1.4 29.4 93 -2.5 27.6
02:45 1016 30 845 24.95 -1.4 29.5 93 -2.4 27.7
02:50 1016 30 845 24.95 -1.4 29.5 93 -2.4 27.7
02:55 1016 30 845 24.95 -1.3 29.7 93 -2.3 27.9
03:00 1016 30 845 24.95 -1.2 29.8 93 -2.2 28
03:05 1016 30 845 24.95 -1.2 29.9 93 -2.2 28.1
03:10 1016 30 845 24.95 -1.1 30 93 -2.1 28.2
03:15 1016 30 845 24.95 -1.1 30.1 93 -2.1 28.2
03:20 1016 30 845 24.95 -1 30.2 93 -2 28.3
03:25 1016 30 845 24.95 -1 30.3 93 -2 28.5
03:30 1016 30 845 24.95 -0.9 30.4 93 -1.9 28.6
03:35 1016 30 845 24.95 -0.9 30.5 93 -1.9 28.6
03:40 1016 30 845 24.95 -0.8 30.5 93 -1.8 28.7
03:45 1016 30 845 24.95 -0.8 30.6 93 -1.8 28.8
03:50 1016 30 845 24.95 -0.8 30.5 93 -1.8 28.7
03:55 1016 30 845 24.95 -0.8 30.6 93 -1.8 28.7
04:00 1016 30 845 24.95 -0.9 30.4 93 -1.9 28.6
04:05 1016 30 845 24.95 -0.9 30.4 93 -1.9 28.5
04:10 1016 30 845 24.95 -1 30.3 93 -1.9 28.5
04:15 1016 30 845 24.95 -0.9 30.3 93 -1.9 28.6
04:20 1016 30 845 24.95 -0.9 30.4 93 -1.9 28.6
04:25 1016 30 845 24.95 -0.8 30.5 93 -1.8 28.7
04:30 1016 30 845 24.95 -0.8 30.6 93 -1.8 28.8
04:35 1016 30 845 24.95 -0.7 30.7 93 -1.7 28.9
04:40 1016 30 845 24.95 -0.7 30.7 93 -1.7 29
04:45 1016 30 845 24.95 -0.7 30.7 93 -1.7 29
04:50 1016 30 845 24.95 -0.7 30.7 93 -1.7 28.9
04:55 1016 30 845 24.95 -0.7 30.8 93 -1.7 29
05:00 1016 30 845 24.95 -0.7 30.8 93 -1.6 29
05:05 1016 30 845 24.95 -0.7 30.8 93 -1.6 29.1
05:10 1016 30 845 24.95 -0.7 30.8 93 -1.7 29
05:15 1016 30 845 24.95 -0.7 30.8 93 -1.6 29.1
05:20 1016 30 845 24.95 -0.7 30.8 93 -1.6 29
05:25 1016 30 845 24.95 -0.7 30.8 93 -1.6 29.1
05:30 1016 30 845 24.95 -0.6 30.9 93 -1.6 29.2
05:35 1016 30 845 24.95 -0.6 31 93 -1.5 29.2
05:40 1016 30 845 24.95 -0.6 31 93 -1.5 29.2
05:45 1016 30 845 24.95 -0.5 31 93 -1.5 29.3
05:50 1016 30 845 24.95 -0.5 31 93 -1.5 29.3
05:55 1016 30 845 24.95 -0.5 31 93 -1.5 29.3
06:00 1016 30 845 24.95 -0.5 31 93 -1.5 29.3
06:05 1016 30 845 24.95 -0.5 31.1 93 -1.5 29.3
06:10 1016 30 845 24.95 -0.5 31 93 -1.5 29.3
06:15 1016 30 845 24.95 -0.6 31 93 -1.5 29.3
06:20 1016 30 845 24.95 -0.7 30.8 93 -1.6 29.1
06:25 1016 30 845 24.95 -0.7 30.8 93 -1.6 29.1
06:30 1016 30 845 24.95 -0.6 30.9 93 -1.6 29.2
06:35 1016 30 845 24.95 -0.6 30.9 93 -1.6 29.2
06:40 1016 30 845 24.95 -0.7 30.8 93 -1.6 29.1
06:45 1016 30 845 24.95 -0.7 30.8 93 -1.6 29
06:50 1016 30 845 24.95 -0.7 30.7 93 -1.6 29
06:55 1016 30 845 24.95 -0.7 30.8 93 -1.6 29.1
07:00 1016 30 845 24.95 -0.7 30.8 93 -1.6 29.1
07:05 1016 30 846 24.98 -0.7 30.7 93 -1.7 29
07:10 1016 30 846 24.98 -0.7 30.8 93 -1.6 29.1
07:15 1016 30 846 24.98 -0.6 30.9 93 -1.5 29.2
07:20 1016 30 846 24.98 -0.6 31 93 -1.5 29.3
07:25 1017 30.03 846 24.98 -0.5 31.1 93 -1.4 29.4
07:30 1017 30.03 846 24.98 -0.5 31.1 94 -1.4 29.5
07:35 1017 30.03 846 24.98 -0.5 31.2 93 -1.4 29.5
07:40 1017 30.03 846 24.98 -0.5 31.2 93 -1.4 29.5
07:45 1017 30.03 846 24.98 -0.4 31.3 94 -1.3 29.7
07:50 1017 30.03 846 24.98 -0.3 31.4 94 -1.2 29.8
07:55 1017 30.03 846 24.98 -0.3 31.5 94 -1.2 29.9
08:00 1017 30.03 846 24.98 -0.2 31.6 94 -1.1 29.9
08:05 1017 30.03 846 24.98 -0.2 31.7 94 -1.1 30
08:10 1017 30.03 846 24.98 -0.2 31.7 94 -1.1 30
08:15 1017 30.03 846 24.98 -0.2 31.7 93 -1.1 30
08:20 1017 30.03 846 24.98 -0.2 31.7 94 -1.1 30
08:25 1017 30.03 846 24.98 -0.2 31.7 93 -1.1 30
08:30 1017 30.03 846 24.98 -0.1 31.8 93 -1.1 30.1
08:35 1017 30.03 846 24.98 -0.1 31.9 93 -1 30.2
08:40 1017 30.03 846 24.98 -0 32 93 -1 30.3
08:45 1017 30.03 846 24.98 0 32 93 -1 30.3
08:50 1017 30.03 846 24.98 -0 31.9 93 -1 30.2
08:55 1017 30.03 846 24.98 -0 32 93 -1 30.2
09:00 1017 30.03 847 25.01 -0 32 93 -1 30.2
09:05 1017 30.03 847 25.01 0 32 93 -1 30.2
09:10 1017 30.03 847 25.01 -0 32 93 -1 30.2
09:15 1017 30.03 847 25.01 0.1 32.1 93 -0.9 30.3
09:20 1018 30.06 847 25.01 0.1 32.2 93 -0.9 30.4
09:25 1018 30.06 847 25.01 0.1 32.3 93 -0.9 30.3
09:30 1018 30.06 847 25.01 0.1 32.2 93 -0.9 30.3
09:35 1018 30.06 847 25.01 0.1 32.2 93 -0.9 30.3
09:40 1018 30.06 847 25.01 0.2 32.3 92 -0.9 30.3
09:45 1018 30.06 847 25.01 0.2 32.3 92 -1 30.3
09:50 1018 30.06 847 25.01 0.2 32.3 92 -1 30.3
09:55 1018 30.06 847 25.01 0.2 32.3 92 -0.9 30.3
10:00 1018 30.06 847 25.01 0.3 32.6 92 -0.8 30.5
10:05 1018 30.06 847 25.01 0.5 32.9 92 -0.7 30.7
10:10 1018 30.06 847 25.01 0.5 33 91 -0.7 30.7
10:15 1018 30.06 847 25.01 0.5 32.9 91 -0.8 30.5
10:20 1018 30.06 847 25.01 0.5 32.9 91 -0.8 30.5
10:25 1018 30.06 847 25.01 0.8 33.4 90 -0.6 30.8
10:30 1018 30.06 847 25.01 1.1 33.9 89 -0.5 31.1
10:35 1018 30.06 847 25.01 1.4 34.5 86 -0.7 30.8
10:40 1018 30.06 847 25.01 1.4 34.6 84 -0.9 30.4
10:45 1018 30.06 847 25.01 1.1 33.9 85 -1.1 30
10:50 1018 30.06 847 25.01 0.8 33.4 86 -1.2 29.8
10:55 1018 30.06 847 25.01 0.7 33.3 87 -1.3 29.7
11:00 1018 30.06 847 25.01 0.6 33.2 87 -1.3 29.6
11:05 1018 30.06 847 25.01 0.6 33.1 87 -1.4 29.6
11:10 1018 30.06 847 25.01 0.6 33 87 -1.3 29.6
11:15 1018 30.06 847 25.01 0.7 33.2 87 -1.3 29.7
11:20 1018 30.06 847 25.01 0.8 33.5 87 -1.2 29.9
11:25 1018 30.06 848 25.04 1.1 34 85 -1.1 30.1
11:30 1018 30.06 848 25.04 1.3 34.4 84 -1.1 29.9
11:35 1018 30.06 847 25.01 1.5 34.6 83 -1.1 30
11:40 1018 30.06 847 25.01 2 35.6 80 -1.2 29.9
11:45 1018 30.06 847 25.01 2.6 36.6 76 -1.2 29.9
11:50 1018 30.06 847 25.01 2.7 36.8 75 -1.3 29.7
11:55 1018 30.06 848 25.04 2.3 36.2 78 -1.1 30
12:00 1018 30.06 848 25.04 2.2 36 77 -1.4 29.5
12:05 1018 30.06 848 25.04 2.2 36 77 -1.3 29.6
12:10 1018 30.06 848 25.04 2.4 36.3 78 -1.1 30.1
12:15 1018 30.06 848 25.04 2.1 35.7 78 -1.3 29.6
12:20 1018 30.06 848 25.04 1.6 34.9 79 -1.6 29.1
12:25 1018 30.06 848 25.04 1.6 34.9 80 -1.5 29.3
12:30 1018 30.06 848 25.04 1.4 34.6 81 -1.5 29.4
12:35 1018 30.06 847 25.01 1.2 34.2 83 -1.4 29.5
12:40 1018 30.06 847 25.01 1.2 34.2 83 -1.3 29.7
12:45 1018 30.06 847 25.01 1.2 34.2 84 -1.1 30
12:50 1018 30.06 847 25.01 0.9 33.7 85 -1.3 29.7
12:55 1018 30.06 847 25.01 0.9 33.6 85 -1.3 29.6
13:00 1018 30.06 848 25.04 0.7 33.3 86 -1.4 29.6
13:05 1018 30.06 848 25.04 0.6 33 87 -1.4 29.5
13:10 1018 30.06 848 25.04 0.6 33.1 86 -1.4 29.5
13:15 1018 30.06 848 25.04 0.6 33.1 86 -1.4 29.4
13:20 1018 30.06 848 25.04 0.6 33.1 86 -1.5 29.4
13:25 1018 30.06 848 25.04 0.6 33.1 87 -1.3 29.6
13:30 1018 30.06 848 25.04 0.7 33.2 87 -1.3 29.6
13:35 1018 30.06 848 25.04 0.6 33.1 86 -1.4 29.4
13:40 1018 30.06 848 25.04 0.5 32.8 88 -1.4 29.5
13:45 1019 30.09 848 25.04 0.4 32.7 88 -1.4 29.5
13:50 1019 30.09 848 25.04 0.3 32.6 88 -1.4 29.5
13:55 1019 30.09 848 25.04 0.3 32.6 88 -1.4 29.5
14:00 1019 30.09 848 25.04 0.4 32.7 88 -1.4 29.6
14:05 1019 30.09 848 25.04 0.5 32.9 88 -1.2 29.8
14:10 1019 30.09 848 25.04 0.7 33.3 87 -1.1 29.9
14:15 1019 30.09 848 25.04 0.9 33.6 87 -1.1 30
14:20 1019 30.09 848 25.04 1.1 33.9 85 -1.2 29.8
14:25 1019 30.09 848 25.04 0.8 33.5 85 -1.4 29.4
14:30 1019 30.09 848 25.04 0.7 33.3 85 -1.5 29.4
14:35 1019 30.09 848 25.04 0.7 33.2 85 -1.5 29.2
14:40 1019 30.09 848 25.04 0.7 33.2 85 -1.6 29
14:45 1019 30.09 848 25.04 0.8 33.5 84 -1.6 29.1
14:50 1019 30.09 848 25.04 0.8 33.4 84 -1.7 28.9
14:55 1019 30.09 848 25.04 0.5 32.9 85 -1.7 28.9
15:00 1019 30.09 848 25.04 0.5 32.8 86 -1.7 29
15:05 1019 30.09 848 25.04 0.6 33.1 84 -1.8 28.7
15:10 1019 30.09 848 25.04 0.4 32.7 85 -1.8 28.7
15:15 1019 30.09 848 25.04 0.1 32.1 86 -2 28.5
15:20 1019 30.09 849 25.07 -0 32 86 -2 28.4
15:25 1019 30.09 849 25.07 -0.1 31.8 87 -2.1 28.2
15:30 1019 30.09 849 25.07 -0.4 31.4 88 -2.1 28.2
15:35 1019 30.09 849 25.07 -0.4 31.3 88 -2.2 28
15:40 1019 30.09 849 25.07 -0.4 31.3 87 -2.2 28
15:45 1020 30.12 849 25.07 -0.3 31.5 87 -2.2 28.1
15:50 1019 30.09 849 25.07 -0.1 31.8 86 -2.1 28.2
15:55 1019 30.09 849 25.07 0 32 86 -2.1 28.2
16:00 1020 30.12 849 25.07 0 32 85 -2.1 28.1
16:05 1020 30.12 849 25.07 0 32.1 85 -2.2 28.1
16:10 1020 30.12 849 25.07 0 32.1 85 -2.1 28.2
16:15 1020 30.12 849 25.07 -0 32 85 -2.2 28
16:20 1020 30.12 849 25.07 -0.1 31.9 86 -2.2 28
16:25 1020 30.12 849 25.07 -0.1 31.7 86 -2.2 28
16:30 1020 30.12 849 25.07 -0.2 31.6 86 -2.2 28
16:35 1020 30.12 849 25.07 -0.4 31.3 87 -2.3 27.8
16:40 1020 30.12 849 25.07 -0.5 31.1 87 -2.4 27.7
16:45 1020 30.12 849 25.07 -0.6 31 87 -2.4 27.7
16:50 1020 30.12 849 25.07 -0.6 30.9 87 -2.5 27.5
16:55 1020 30.12 849 25.07 -0.7 30.7 88 -2.6 27.4
17:00 1020 30.12 849 25.07 -0.8 30.5 88 -2.6 27.3
17:05 1020 30.12 849 25.07 -0.9 30.4 88 -2.7 27.2
17:10 1020 30.12 849 25.07 -0.9 30.4 88 -2.6 27.3
17:15 1020 30.12 849 25.07 -0.9 30.4 88 -2.6 27.4
17:20 1020 30.12 849 25.07 -0.9 30.4 88 -2.6 27.3
17:25 1020 30.12 849 25.07 -1 30.1 89 -2.7 27.2
17:30 1020 30.12 849 25.07 -1.1 29.9 89 -2.7 27.1
17:35 1020 30.12 849 25.07 -1.2 29.8 89 -2.8 27
17:40 1020 30.12 849 25.07 -1.4 29.4 89 -3 26.6
17:45 1020 30.12 849 25.07 -1.6 29 90 -3.1 26.5
17:50 1020 30.12 849 25.07 -1.6 29.1 91 -2.9 26.7
17:55 1020 30.12 849 25.07 -1.5 29.2 90 -2.9 26.7
18:00 1020 30.12 849 25.07 -1.7 28.9 91 -3 26.5
18:05 1020 30.12 849 25.07 -1.8 28.8 91 -3 26.5
18:10 1020 30.12 849 25.07 -1.6 29.1 92 -2.8 27
18:15 1020 30.12 849 25.07 -1.4 29.5 91 -2.6 27.3
18:20 1020 30.12 849 25.07 -1.2 29.8 91 -2.5 27.5
18:25 1020 30.12 849 25.07 -1.2 29.8 90 -2.6 27.4
18:30 1020 30.12 850 25.1 -1.2 29.8 90 -2.7 27.2
18:35 1020 30.12 850 25.1 -1.3 29.6 90 -2.7 27.1
18:40 1020 30.12 850 25.1 -1.4 29.4 90 -2.8 26.9
18:45 1020 30.12 850 25.1 -1.5 29.3 91 -2.9 26.9
18:50 1020 30.12 850 25.1 -1.5 29.2 91 -2.9 26.8
18:55 1020 30.12 850 25.1 -1.6 29.2 91 -2.9 26.8
19:00 1021 30.15 850 25.1 -1.5 29.3 91 -2.9 26.8
19:05 1021 30.15 850 25.1 -1.6 29.2 90 -2.9 26.7
19:10 1021 30.15 850 25.1 -1.6 29.1 91 -2.9 26.7
19:15 1021 30.15 850 25.1 -1.7 29 91 -3 26.6
19:20 1021 30.15 850 25.1 -1.7 28.9 90 -3.1 26.4
19:25 1021 30.15 850 25.1 -1.8 28.8 90 -3.2 26.2
19:30 1021 30.15 850 25.1 -1.8 28.8 90 -3.2 26.2
19:35 1021 30.15 850 25.1 -1.8 28.8 90 -3.2 26.2
19:40 1021 30.15 850 25.1 -1.8 28.7 90 -3.3 26.1
19:45 1021 30.15 850 25.1 -1.8 28.7 90 -3.3 26.1
19:50 1021 30.15 850 25.1 -2 28.4 90 -3.4 25.9
19:55 1021 30.15 850 25.1 -2.3 27.9 91 -3.6 25.6
20:00 1021 30.15 850 25.1 -2.4 27.6 92 -3.6 25.5
20:05 1021 30.15 850 25.1 -2.3 27.8 92 -3.5 25.7
20:10 1021 30.15 850 25.1 -2.4 27.7 92 -3.5 25.7
20:15 1021 30.15 850 25.1 -2.4 27.6 92 -3.5 25.7
20:20 1021 30.15 850 25.1 -2.4 27.7 93 -3.4 25.8
20:25 1021 30.15 850 25.1 -2.2 28 93 -3.3 26.1
20:30 1021 30.15 850 25.1 -2.2 28 93 -3.3 26.1
20:35 1021 30.15 850 25.1 -2.4 27.8 93 -3.4 25.9
20:40 1021 30.15 850 25.1 -2.3 27.9 93 -3.3 26.1
20:45 1021 30.15 850 25.1 -2.3 27.9 93 -3.3 26.1
20:50 1021 30.15 850 25.1 -2.3 27.9 93 -3.3 26.1
20:55 1021 30.15 850 25.1 -2.3 27.8 93 -3.4 25.9
21:00 1021 30.15 850 25.1 -2.3 27.8 93 -3.3 26
21:05 1021 30.15 850 25.1 -2.4 27.8 93 -3.4 25.9
21:10 1021 30.15 850 25.1 -2.4 27.6 93 -3.5 25.8
21:15 1021 30.15 850 25.1 -2.5 27.6 93 -3.5 25.8
21:20 1021 30.15 850 25.1 -2.4 27.6 93 -3.5 25.8
21:25 1021 30.15 850 25.1 -2.5 27.6 93 -3.5 25.7
21:30 1021 30.15 850 25.1 -2.5 27.4 92 -3.6 25.5
21:35 1021 30.15 850 25.1 -2.6 27.3 93 -3.7 25.4
21:40 1021 30.15 850 25.1 -2.6 27.2 93 -3.7 25.3
21:45 1021 30.15 850 25.1 -2.6 27.4 92 -3.6 25.4
21:50 1021 30.15 850 25.1 -2.7 27.2 93 -3.7 25.3
21:55 1021 30.15 850 25.1 -2.7 27.2 93 -3.7 25.4
22:00 1021 30.15 850 25.1 -2.6 27.3 93 -3.6 25.5
22:05 1021 30.15 850 25.1 -2.5 27.4 93 -3.5 25.6
22:10 1021 30.15 850 25.1 -2.6 27.3 93 -3.6 25.5
22:15 1021 30.15 850 25.1 -2.7 27.2 93 -3.7 25.3
22:20 1021 30.15 850 25.1 -2.7 27.2 93 -3.7 25.3
22:25 1021 30.15 850 25.1 -2.6 27.3 93 -3.6 25.6
22:30 1021 30.15 850 25.1 -2.5 27.5 93 -3.5 25.8
22:35 1021 30.15 850 25.1 -2.3 27.8 93 -3.3 26
22:40 1021 30.15 850 25.1 -2.3 27.9 92 -3.4 26
22:45 1021 30.15 850 25.1 -2.5 27.6 92 -3.5 25.6
22:50 1021 30.15 850 25.1 -2.5 27.5 92 -3.6 25.5
22:55 1021 30.15 850 25.1 -2.7 27.2 93 -3.7 25.3
23:00 1021 30.15 850 25.1 -2.7 27.1 93 -3.7 25.3
23:05 1021 30.15 850 25.1 -2.6 27.3 93 -3.6 25.5
23:10 1021 30.15 850 25.1 -2.6 27.4 93 -3.6 25.6
23:15 1021 30.15 850 25.1 -2.5 27.4 93 -3.6 25.6
23:20 1021 30.15 850 25.1 -2.6 27.4 93 -3.6 25.6
23:25 1021 30.15 850 25.1 -2.6 27.4 93 -3.6 25.6
23:30 1021 30.15 850 25.1 -2.5 27.6 93 -3.5 25.7
23:35 1021 30.15 850 25.1 -2.3 27.8 93 -3.4 25.9
23:40 1021 30.15 850 25.1 -2.4 27.7 93 -3.5 25.8
23:45 1021 30.15 850 25.1 -2.4 27.7 93 -3.4 25.8
23:50 1021 30.15 850 25.1 -2.4 27.6 92 -3.5 25.7
23:55 1021 30.15 850 25.1 -2.5 27.5 92 -3.6 25.5
24:00 1021 30.15 850 25.1 -2.6 27.4 92 -3.6 25.4